Newark, New Jersey
Current Conditions -  °F | °C
As of 6:51 AM on Thursday 27 Nov 2014 (Local Time) from KEWR Reporting Station
Light Snow Light Snow  
Wind Chill: -1°   Ceiling: 5500
Heat Index:   Visibility: 10mi
Dew Point: -1°   Wind: 7mph
Humidity: 82%   Direction: 300°WNW
Pressure: 29.97"   Gusts: NA
Location:  40.73°N, 74.17°W
Report Text: KEWR 271151Z 30006KT 10SM -SN FEW022 OVC055 02/M01 A2997 RMK AO2 SNB42 SLP148 931000 4/001 P0000 60000 70110 T00221006 10028 20022 51013 $
Loading
Personal Weather Stations






























Interactive Weather Map New forecast layout! Learn more

10-Day Weather Forecast

Advertisements
Track Severe Weather on mobile